Weather at Turtle Island Seaplane Base

Public forecast

Using degrees Celsius for public forecast. Weather courtesy of forecast.io.

Closest aviation weather report (METAR) to Turtle Island Seaplane Base

Report is more than 6 hours old.

Closest report is Nadi International Airport, 47.6 nm (88.1 km) S. Retrieved 2022/09/17 19:00 UTC (13 days ago):

NFFN 171900Z 00000KT 9999 FEW030 24/21 Q1016 NOSIG

Closest aviation forecast (TAF) to Turtle Island Seaplane Base

Forecast is more than 12 hours old.

Closest forecast is Nadi International Airport, 47.6 nm (88.1 km) S. Retrieved 2022/09/17 18:00 UTC (13 days ago):

TAF NFFN 171701Z 1718/1818 12005KT 9999 FEW028 SCT048 BECMG 1722/1724 31012KT PROB40 TEMPO 1802/1806 5000 TSRA BKN016 FEW017CB BECMG 1806/1808 12005KT